Etusivu
METAR-TAF:

METAR-TAF

Lentoasemat :

Bryssel, Belgia

Brysselin lentoasema

Leveyspiiri: 50-54N, Pituuspiiri: 004-32E, korkeus merenpinnasta: 55 m

Tämänhetkinen sää

Tämä raportti tehtiin 34 minuuttia sitten, kello 18.20 UTC
Tuuli 14 kn lännestä
Lämpötila 12°C
Kosteus 44%
Ilmanpaine 1017 hPa
Näkyvyys 10 km tai enemmän
ei pilviä alle 1500 m:ssä eikä cumulonimbus-pilviä

METAR: EBBR 261820Z 26014KT CAVOK 12/M00 Q1017 NOSIG

Aika: 20:54 (18:54 UTC)

Sääennuste

Tämä raportti tehtiin 1 tunti ja 53 minuuttia sitten, kello 17.01 UTC
Ennuste voimassa 26. päivästä klo 18 UTC - 27. päivään klo 24 UTC
Tuuli 8 kn lännestä/lounaasta
Näkyvyys 10 km tai enemmän
ei pilviä alle 1500 m:ssä eikä cumulonimbus-pilviä

TAF: EBBR 261701Z 2618/2724 24008KT CAVOK

Säähavainnot ja -ennusteet yli 4000 lentoasemalta (METAR- ja TAF-raportit).

Käytössä olevat sääasemat on merkitty karttaan keltaisilla ja punaisilla pisteillä.

Aseta hiiri pisteen päälle nähdäksesi sääaseman nimen.

Klikkaa sitten nähdäksesi säähavainnot ja -ennusteet.

Kartan vaihtaminen: klikkaa mustalla rastilla varustettuja vihreitä pisteitä, niin voit zoomata sisään; viivalla varustettua vihreää pistettä, niin voit zoomata ulos tai vihreitä nuolia, niin pääset viereisille kartoille.


METAR-TAF: